Navios Taurus — 9HA3414 — position and weather

sailwx.info

Track history (hours):
 
Tides and Currents Weather Stations Pressure Air Temp Water Temp Dewpoint Dewpoint Depression Visibility Wind Speed Wind Dir Waves Ship Positions

Navios Taurus

Last reported at 2018-May-18 08:38 UTC. Time now 2018-May-21 06:49 UTC.
Position N 29°14' W 089°18'.

Length 225 m; draft 7.5 m.

Type: Ship. MMSI: 229569000.

Date/timePositionNaut miles runAvg speedWind from/ knotsBaromVisibWave heightAir tempDewpointWater temp
2018-May-18 08:38N 29°14' W 089°18'0 0.0
2018-May-18 06:20N 29°14' W 089°18'0 0.0
2018-May-18 05:56N 29°14' W 089°18'0 0.0
2018-May-18 05:29N 29°14' W 089°18'0 0.0
2018-May-18 04:56N 29°14' W 089°18'0 0.0
2018-May-18 04:14N 29°14' W 089°18'0 0.0
2018-May-18 03:59N 29°14' W 089°18'52 3.8
2018-May-17 14:06N 29°53' W 089°57'0 0.0
2018-May-17 13:56N 29°53' W 089°57'0 0.0
2018-May-17 13:30N 29°53' W 089°57'0 0.0
2018-May-17 12:54N 29°53' W 089°57'0 0.0
2018-May-17 12:26N 29°53' W 089°57'0 0.0
2018-May-17 11:47N 29°53' W 089°57'0 0.0
2018-May-17 10:12N 29°53' W 089°57'0 0.0
2018-May-17 07:51N 29°53' W 089°57'0 0.0
2018-May-17 07:29N 29°53' W 089°57'  
2018-May-10 12:45N 29°22' W 089°31'2 7.5
2018-May-10 12:29N 29°21' W 089°29'3 6.6
2018-May-10 11:59N 29°21' W 089°26'5 7.7
2018-May-10 11:21N 29°18' W 089°22'  
Track history (hours):
 
Tides and Currents Weather Stations Pressure Air Temp Water Temp Dewpoint Dewpoint Depression Visibility Wind Speed Wind Dir Waves Ship Positions

Navios Taurus

Last reported at 2018-May-18 08:38 UTC. Time now 2018-May-21 06:49 UTC.
Position N 29°14' W 089°18'.

Length 225 m; draft 7.5 m.

Type: Ship. MMSI: 229569000.

Date/timePositionNaut miles runAvg speedWind from/ knotsBaromVisibWave heightAir tempDewpointWater temp
2018-May-18 08:38N 29°14' W 089°18'0 0.0
2018-May-18 06:20N 29°14' W 089°18'0 0.0
2018-May-18 05:56N 29°14' W 089°18'0 0.0
2018-May-18 05:29N 29°14' W 089°18'0 0.0
2018-May-18 04:56N 29°14' W 089°18'0 0.0
2018-May-18 04:14N 29°14' W 089°18'0 0.0
2018-May-18 03:59N 29°14' W 089°18'52 3.8
2018-May-17 14:06N 29°53' W 089°57'0 0.0
2018-May-17 13:56N 29°53' W 089°57'0 0.0
2018-May-17 13:30N 29°53' W 089°57'0 0.0
2018-May-17 12:54N 29°53' W 089°57'0 0.0
2018-May-17 12:26N 29°53' W 089°57'0 0.0
2018-May-17 11:47N 29°53' W 089°57'0 0.0
2018-May-17 10:12N 29°53' W 089°57'0 0.0
2018-May-17 07:51N 29°53' W 089°57'0 0.0
2018-May-17 07:29N 29°53' W 089°57'  
2018-May-10 12:45N 29°22' W 089°31'2 7.5
2018-May-10 12:29N 29°21' W 089°29'3 6.6
2018-May-10 11:59N 29°21' W 089°26'5 7.7
2018-May-10 11:21N 29°18' W 089°22'  

Dump ship's entire track history